sensor_id;sensor_type;location;lat;lon;timestamp;P1;durP1;ratioP1;P2;durP2;ratioP2
51810;SDS011;52468;40.116;18.296;2023-09-19T00:00:45;14.47;;;8.80;;
51810;SDS011;52468;40.116;18.296;2023-09-19T00:03:16;16.07;;;8.53;;
51810;SDS011;52468;40.116;18.296;2023-09-19T00:05:44;16.03;;;8.77;;
51810;SDS011;52468;40.116;18.296;2023-09-19T00:08:13;13.03;;;8.43;;
51810;SDS011;52468;40.116;18.296;2023-09-19T00:10:41;15.23;;;9.00;;
51810;SDS011;52468;40.116;18.296;2023-09-19T00:13:09;17.23;;;7.93;;
51810;SDS011;52468;40.116;18.296;2023-09-19T00:15:41;12.27;;;8.47;;
51810;SDS011;52468;40.116;18.296;2023-09-19T00:18:18;11.90;;;8.37;;
51810;SDS011;52468;40.116;18.296;2023-09-19T00:20:51;12.00;;;8.40;;
51810;SDS011;52468;40.116;18.296;2023-09-19T00:23:19;14.63;;;7.97;;
51810;SDS011;52468;40.116;18.296;2023-09-19T00:25:48;13.00;;;7.90;;
51810;SDS011;52468;40.116;18.296;2023-09-19T00:28:17;13.40;;;9.40;;
51810;SDS011;52468;40.116;18.296;2023-09-19T00:30:47;12.07;;;7.80;;
51810;SDS011;52468;40.116;18.296;2023-09-19T00:33:17;11.67;;;7.70;;
51810;SDS011;52468;40.116;18.296;2023-09-19T00:35:47;15.50;;;8.07;;
51810;SDS011;52468;40.116;18.296;2023-09-19T00:38:19;15.73;;;7.80;;
51810;SDS011;52468;40.116;18.296;2023-09-19T00:40:50;14.57;;;7.83;;
51810;SDS011;52468;40.116;18.296;2023-09-19T00:43:20;18.33;;;8.60;;
51810;SDS011;52468;40.116;18.296;2023-09-19T00:45:53;14.10;;;7.90;;
51810;SDS011;52468;40.116;18.296;2023-09-19T00:48:22;13.60;;;8.07;;
51810;SDS011;52468;40.116;18.296;2023-09-19T00:50:52;12.17;;;9.37;;
51810;SDS011;52468;40.116;18.296;2023-09-19T00:53:22;13.23;;;7.13;;
51810;SDS011;52468;40.116;18.296;2023-09-19T00:55:53;17.00;;;7.70;;
51810;SDS011;52468;40.116;18.296;2023-09-19T00:58:23;13.97;;;8.73;;
51810;SDS011;52468;40.116;18.296;2023-09-19T01:00:51;15.23;;;8.87;;
51810;SDS011;52468;40.116;18.296;2023-09-19T01:03:20;15.10;;;8.10;;
51810;SDS011;52468;40.116;18.296;2023-09-19T01:05:49;10.57;;;7.30;;
51810;SDS011;52468;40.116;18.296;2023-09-19T01:08:19;11.63;;;8.47;;
51810;SDS011;52468;40.116;18.296;2023-09-19T01:11:02;15.17;;;9.07;;
51810;SDS011;52468;40.116;18.296;2023-09-19T01:14:06;15.50;;;9.37;;
51810;SDS011;52468;40.116;18.296;2023-09-19T01:17:00;17.87;;;9.90;;
51810;SDS011;52468;40.116;18.296;2023-09-19T01:25:45;12.03;;;8.10;;
51810;SDS011;52468;40.116;18.296;2023-09-19T01:28:43;13.00;;;9.00;;
51810;SDS011;52468;40.116;18.296;2023-09-19T01:31:21;17.10;;;9.03;;
51810;SDS011;52468;40.116;18.296;2023-09-19T01:33:55;12.37;;;8.23;;
51810;SDS011;52468;40.116;18.296;2023-09-19T01:36:27;12.67;;;9.10;;
51810;SDS011;52468;40.116;18.296;2023-09-19T01:38:57;16.93;;;9.63;;
51810;SDS011;52468;40.116;18.296;2023-09-19T01:41:30;15.90;;;8.63;;
51810;SDS011;52468;40.116;18.296;2023-09-19T01:44:09;14.77;;;8.87;;
51810;SDS011;52468;40.116;18.296;2023-09-19T01:46:42;14.53;;;8.07;;
51810;SDS011;52468;40.116;18.296;2023-09-19T01:49:27;12.80;;;8.07;;
51810;SDS011;52468;40.116;18.296;2023-09-19T01:52:13;13.43;;;7.87;;
51810;SDS011;52468;40.116;18.296;2023-09-19T01:54:53;11.97;;;7.90;;
51810;SDS011;52468;40.116;18.296;2023-09-19T01:57:28;13.67;;;9.00;;
51810;SDS011;52468;40.116;18.296;2023-09-19T02:00:04;16.38;;;8.18;;
51810;SDS011;52468;40.116;18.296;2023-09-19T02:02:42;16.73;;;9.27;;
51810;SDS011;52468;40.116;18.296;2023-09-19T02:05:21;13.05;;;8.98;;
51810;SDS011;52468;40.116;18.296;2023-09-19T02:07:51;10.70;;;7.97;;
51810;SDS011;52468;40.116;18.296;2023-09-19T02:10:20;15.10;;;8.50;;
51810;SDS011;52468;40.116;18.296;2023-09-19T02:12:50;17.00;;;7.87;;
51810;SDS011;52468;40.116;18.296;2023-09-19T02:15:18;13.87;;;7.80;;
51810;SDS011;52468;40.116;18.296;2023-09-19T02:17:46;15.13;;;9.30;;
51810;SDS011;52468;40.116;18.296;2023-09-19T02:20:14;13.17;;;9.10;;
51810;SDS011;52468;40.116;18.296;2023-09-19T02:22:43;17.40;;;9.43;;
51810;SDS011;52468;40.116;18.296;2023-09-19T02:25:11;13.20;;;8.60;;
51810;SDS011;52468;40.116;18.296;2023-09-19T02:27:41;13.87;;;9.27;;
51810;SDS011;52468;40.116;18.296;2023-09-19T02:30:10;15.07;;;8.80;;
51810;SDS011;52468;40.116;18.296;2023-09-19T02:32:38;18.73;;;8.60;;
51810;SDS011;52468;40.116;18.296;2023-09-19T02:35:06;9.93;;;8.20;;
51810;SDS011;52468;40.116;18.296;2023-09-19T02:37:34;14.87;;;8.97;;
51810;SDS011;52468;40.116;18.296;2023-09-19T02:40:03;11.50;;;8.17;;
51810;SDS011;52468;40.116;18.296;2023-09-19T02:42:46;14.67;;;8.80;;
51810;SDS011;52468;40.116;18.296;2023-09-19T02:45:16;16.73;;;9.60;;
51810;SDS011;52468;40.116;18.296;2023-09-19T02:47:45;18.07;;;9.40;;
51810;SDS011;52468;40.116;18.296;2023-09-19T02:50:14;12.73;;;8.63;;
51810;SDS011;52468;40.116;18.296;2023-09-19T02:52:46;10.27;;;8.27;;
51810;SDS011;52468;40.116;18.296;2023-09-19T02:55:17;15.53;;;8.27;;
51810;SDS011;52468;40.116;18.296;2023-09-19T02:57:50;12.80;;;8.93;;
51810;SDS011;52468;40.116;18.296;2023-09-19T03:00:20;12.65;;;8.25;;
51810;SDS011;52468;40.116;18.296;2023-09-19T03:02:55;16.37;;;9.23;;
51810;SDS011;52468;40.116;18.296;2023-09-19T03:05:24;13.57;;;7.97;;
51810;SDS011;52468;40.116;18.296;2023-09-19T03:07:53;19.03;;;8.93;;
51810;SDS011;52468;40.116;18.296;2023-09-19T03:10:23;14.40;;;9.30;;
51810;SDS011;52468;40.116;18.296;2023-09-19T03:12:52;13.50;;;9.07;;
51810;SDS011;52468;40.116;18.296;2023-09-19T03:15:21;14.67;;;9.40;;
51810;SDS011;52468;40.116;18.296;2023-09-19T03:17:51;11.87;;;9.47;;
51810;SDS011;52468;40.116;18.296;2023-09-19T03:20:22;12.33;;;9.70;;
51810;SDS011;52468;40.116;18.296;2023-09-19T03:22:50;11.43;;;9.70;;
51810;SDS011;52468;40.116;18.296;2023-09-19T03:25:20;13.30;;;8.43;;
51810;SDS011;52468;40.116;18.296;2023-09-19T03:27:51;10.90;;;8.93;;
51810;SDS011;52468;40.116;18.296;2023-09-19T03:30:20;16.90;;;10.60;;
51810;SDS011;52468;40.116;18.296;2023-09-19T03:32:49;16.33;;;9.70;;
51810;SDS011;52468;40.116;18.296;2023-09-19T03:35:17;13.77;;;9.40;;
51810;SDS011;52468;40.116;18.296;2023-09-19T03:37:46;13.20;;;10.77;;
51810;SDS011;52468;40.116;18.296;2023-09-19T03:40:14;15.13;;;10.93;;
51810;SDS011;52468;40.116;18.296;2023-09-19T03:42:44;21.37;;;12.10;;
51810;SDS011;52468;40.116;18.296;2023-09-19T03:45:13;17.20;;;12.73;;
51810;SDS011;52468;40.116;18.296;2023-09-19T03:47:51;17.03;;;12.27;;
51810;SDS011;52468;40.116;18.296;2023-09-19T03:50:22;18.13;;;11.23;;
51810;SDS011;52468;40.116;18.296;2023-09-19T03:52:50;17.83;;;12.73;;
51810;SDS011;52468;40.116;18.296;2023-09-19T03:55:24;20.20;;;14.10;;
51810;SDS011;52468;40.116;18.296;2023-09-19T03:57:52;21.93;;;14.13;;
51810;SDS011;52468;40.116;18.296;2023-09-19T04:00:20;22.07;;;13.17;;
51810;SDS011;52468;40.116;18.296;2023-09-19T04:02:48;25.43;;;14.47;;
51810;SDS011;52468;40.116;18.296;2023-09-19T04:05:19;26.17;;;13.60;;
51810;SDS011;52468;40.116;18.296;2023-09-19T04:07:46;20.57;;;13.43;;
51810;SDS011;52468;40.116;18.296;2023-09-19T04:10:14;23.63;;;13.53;;
51810;SDS011;52468;40.116;18.296;2023-09-19T04:12:55;25.27;;;13.17;;
51810;SDS011;52468;40.116;18.296;2023-09-19T04:15:24;21.27;;;13.83;;
51810;SDS011;52468;40.116;18.296;2023-09-19T04:17:53;24.30;;;12.43;;
51810;SDS011;52468;40.116;18.296;2023-09-19T04:20:22;18.00;;;13.40;;
51810;SDS011;52468;40.116;18.296;2023-09-19T04:22:50;14.83;;;12.40;;
51810;SDS011;52468;40.116;18.296;2023-09-19T04:25:19;17.17;;;12.40;;
51810;SDS011;52468;40.116;18.296;2023-09-19T04:27:47;21.63;;;12.50;;
51810;SDS011;52468;40.116;18.296;2023-09-19T04:30:15;18.50;;;12.43;;
51810;SDS011;52468;40.116;18.296;2023-09-19T04:32:43;15.83;;;12.27;;
51810;SDS011;52468;40.116;18.296;2023-09-19T04:35:11;18.07;;;13.03;;
51810;SDS011;52468;40.116;18.296;2023-09-19T04:37:39;15.03;;;11.00;;
51810;SDS011;52468;40.116;18.296;2023-09-19T04:40:08;16.00;;;12.60;;
51810;SDS011;52468;40.116;18.296;2023-09-19T04:42:41;16.88;;;11.95;;
51810;SDS011;52468;40.116;18.296;2023-09-19T04:45:09;19.00;;;12.37;;
51810;SDS011;52468;40.116;18.296;2023-09-19T04:47:38;19.83;;;13.10;;
51810;SDS011;52468;40.116;18.296;2023-09-19T04:50:09;16.63;;;12.20;;
51810;SDS011;52468;40.116;18.296;2023-09-19T04:52:41;16.07;;;11.37;;
51810;SDS011;52468;40.116;18.296;2023-09-19T04:55:10;18.60;;;12.20;;
51810;SDS011;52468;40.116;18.296;2023-09-19T04:57:47;17.63;;;12.00;;
51810;SDS011;52468;40.116;18.296;2023-09-19T05:02:46;20.60;;;11.43;;
51810;SDS011;52468;40.116;18.296;2023-09-19T05:05:19;19.00;;;12.00;;
51810;SDS011;52468;40.116;18.296;2023-09-19T05:07:48;15.50;;;11.27;;
51810;SDS011;52468;40.116;18.296;2023-09-19T05:10:15;13.73;;;11.93;;
51810;SDS011;52468;40.116;18.296;2023-09-19T05:12:45;18.83;;;12.07;;
51810;SDS011;52468;40.116;18.296;2023-09-19T05:15:15;16.37;;;10.63;;
51810;SDS011;52468;40.116;18.296;2023-09-19T05:17:50;17.30;;;11.60;;
51810;SDS011;52468;40.116;18.296;2023-09-19T05:20:23;16.03;;;11.73;;
51810;SDS011;52468;40.116;18.296;2023-09-19T05:23:03;15.93;;;10.47;;
51810;SDS011;52468;40.116;18.296;2023-09-19T05:25:35;15.80;;;10.00;;
51810;SDS011;52468;40.116;18.296;2023-09-19T05:28:05;19.07;;;11.33;;
51810;SDS011;52468;40.116;18.296;2023-09-19T05:30:35;16.10;;;10.07;;
51810;SDS011;52468;40.116;18.296;2023-09-19T05:33:03;16.93;;;9.40;;
51810;SDS011;52468;40.116;18.296;2023-09-19T05:35:31;17.53;;;9.90;;
51810;SDS011;52468;40.116;18.296;2023-09-19T05:38:00;14.57;;;9.33;;
51810;SDS011;52468;40.116;18.296;2023-09-19T05:40:27;16.03;;;10.77;;
51810;SDS011;52468;40.116;18.296;2023-09-19T05:42:55;16.53;;;10.10;;
51810;SDS011;52468;40.116;18.296;2023-09-19T05:45:23;18.63;;;10.90;;
51810;SDS011;52468;40.116;18.296;2023-09-19T05:47:52;19.17;;;11.43;;
51810;SDS011;52468;40.116;18.296;2023-09-19T05:50:28;16.90;;;9.00;;
51810;SDS011;52468;40.116;18.296;2023-09-19T05:52:56;28.23;;;11.40;;
51810;SDS011;52468;40.116;18.296;2023-09-19T05:55:23;17.73;;;10.00;;
51810;SDS011;52468;40.116;18.296;2023-09-19T05:57:52;15.70;;;7.73;;
51810;SDS011;52468;40.116;18.296;2023-09-19T06:00:21;15.47;;;8.00;;
51810;SDS011;52468;40.116;18.296;2023-09-19T06:02:53;21.20;;;8.27;;
51810;SDS011;52468;40.116;18.296;2023-09-19T06:05:22;13.47;;;7.63;;
51810;SDS011;52468;40.116;18.296;2023-09-19T06:07:54;13.60;;;7.27;;
51810;SDS011;52468;40.116;18.296;2023-09-19T06:10:22;16.27;;;7.57;;
51810;SDS011;52468;40.116;18.296;2023-09-19T06:12:51;12.03;;;7.27;;
51810;SDS011;52468;40.116;18.296;2023-09-19T06:15:20;16.50;;;7.37;;
51810;SDS011;52468;40.116;18.296;2023-09-19T06:17:52;20.77;;;8.33;;
51810;SDS011;52468;40.116;18.296;2023-09-19T06:22:53;17.70;;;7.60;;
51810;SDS011;52468;40.116;18.296;2023-09-19T06:25:21;13.73;;;7.07;;
51810;SDS011;52468;40.116;18.296;2023-09-19T06:27:49;18.48;;;7.38;;
51810;SDS011;52468;40.116;18.296;2023-09-19T06:30:22;21.30;;;7.85;;
51810;SDS011;52468;40.116;18.296;2023-09-19T06:32:57;15.32;;;7.13;;
51810;SDS011;52468;40.116;18.296;2023-09-19T06:35:26;18.73;;;6.97;;
51810;SDS011;52468;40.116;18.296;2023-09-19T06:37:56;17.25;;;7.13;;
51810;SDS011;52468;40.116;18.296;2023-09-19T06:40:25;17.60;;;6.50;;
51810;SDS011;52468;40.116;18.296;2023-09-19T06:42:55;21.23;;;5.30;;
51810;SDS011;52468;40.116;18.296;2023-09-19T06:45:23;31.25;;;6.78;;
51810;SDS011;52468;40.116;18.296;2023-09-19T06:47:54;13.68;;;4.80;;
51810;SDS011;52468;40.116;18.296;2023-09-19T06:50:25;17.88;;;5.57;;
51810;SDS011;52468;40.116;18.296;2023-09-19T06:52:55;18.67;;;5.20;;
51810;SDS011;52468;40.116;18.296;2023-09-19T06:55:25;16.98;;;4.65;;
51810;SDS011;52468;40.116;18.296;2023-09-19T06:57:55;14.85;;;5.07;;
51810;SDS011;52468;40.116;18.296;2023-09-19T07:00:23;17.08;;;4.78;;
51810;SDS011;52468;40.116;18.296;2023-09-19T07:05:23;19.20;;;5.88;;
51810;SDS011;52468;40.116;18.296;2023-09-19T07:07:51;18.48;;;5.38;;
51810;SDS011;52468;40.116;18.296;2023-09-19T07:10:19;25.88;;;6.38;;
51810;SDS011;52468;40.116;18.296;2023-09-19T07:12:57;15.65;;;6.28;;
51810;SDS011;52468;40.116;18.296;2023-09-19T07:15:26;17.10;;;5.15;;
51810;SDS011;52468;40.116;18.296;2023-09-19T07:17:54;22.55;;;6.38;;
51810;SDS011;52468;40.116;18.296;2023-09-19T07:20:24;17.95;;;5.85;;
51810;SDS011;52468;40.116;18.296;2023-09-19T07:22:57;23.73;;;6.72;;
51810;SDS011;52468;40.116;18.296;2023-09-19T07:25:28;19.38;;;7.03;;
51810;SDS011;52468;40.116;18.296;2023-09-19T07:27:56;19.98;;;7.43;;
51810;SDS011;52468;40.116;18.296;2023-09-19T07:30:27;20.15;;;7.15;;
51810;SDS011;52468;40.116;18.296;2023-09-19T07:32:56;18.23;;;7.95;;
51810;SDS011;52468;40.116;18.296;2023-09-19T07:35:24;30.45;;;8.70;;
51810;SDS011;52468;40.116;18.296;2023-09-19T07:37:54;25.35;;;7.78;;
51810;SDS011;52468;40.116;18.296;2023-09-19T07:40:23;28.20;;;8.48;;
51810;SDS011;52468;40.116;18.296;2023-09-19T07:42:54;31.55;;;9.02;;
51810;SDS011;52468;40.116;18.296;2023-09-19T07:45:23;30.58;;;9.10;;
51810;SDS011;52468;40.116;18.296;2023-09-19T07:47:52;40.58;;;8.93;;
51810;SDS011;52468;40.116;18.296;2023-09-19T07:50:20;26.08;;;7.88;;
51810;SDS011;52468;40.116;18.296;2023-09-19T07:52:48;32.05;;;7.57;;
51810;SDS011;52468;40.116;18.296;2023-09-19T07:55:18;28.50;;;7.70;;
51810;SDS011;52468;40.116;18.296;2023-09-19T07:57:52;28.30;;;7.20;;
51810;SDS011;52468;40.116;18.296;2023-09-19T08:00:20;27.08;;;6.43;;
51810;SDS011;52468;40.116;18.296;2023-09-19T08:02:48;29.00;;;7.18;;
51810;SDS011;52468;40.116;18.296;2023-09-19T08:05:16;18.50;;;6.03;;
51810;SDS011;52468;40.116;18.296;2023-09-19T08:07:45;23.98;;;5.78;;
51810;SDS011;52468;40.116;18.296;2023-09-19T08:10:16;22.83;;;6.55;;
51810;SDS011;52468;40.116;18.296;2023-09-19T08:12:46;33.13;;;7.63;;
51810;SDS011;52468;40.116;18.296;2023-09-19T08:15:18;19.80;;;7.35;;
51810;SDS011;52468;40.116;18.296;2023-09-19T08:17:47;24.23;;;7.05;;
51810;SDS011;52468;40.116;18.296;2023-09-19T08:20:16;21.30;;;5.53;;
51810;SDS011;52468;40.116;18.296;2023-09-19T08:22:47;25.10;;;7.47;;
51810;SDS011;52468;40.116;18.296;2023-09-19T08:25:16;24.83;;;7.07;;
51810;SDS011;52468;40.116;18.296;2023-09-19T08:27:47;23.30;;;8.05;;
51810;SDS011;52468;40.116;18.296;2023-09-19T08:30:20;22.55;;;8.75;;
51810;SDS011;52468;40.116;18.296;2023-09-19T08:32:51;29.67;;;10.43;;
51810;SDS011;52468;40.116;18.296;2023-09-19T08:35:24;21.80;;;7.93;;
51810;SDS011;52468;40.116;18.296;2023-09-19T08:37:52;24.52;;;7.82;;
51810;SDS011;52468;40.116;18.296;2023-09-19T08:40:20;18.92;;;8.35;;
51810;SDS011;52468;40.116;18.296;2023-09-19T08:42:48;18.27;;;6.63;;
51810;SDS011;52468;40.116;18.296;2023-09-19T08:45:21;18.90;;;8.68;;
51810;SDS011;52468;40.116;18.296;2023-09-19T08:51:25;24.63;;;7.05;;
51810;SDS011;52468;40.116;18.296;2023-09-19T08:53:44;25.30;;;6.85;;
51810;SDS011;52468;40.116;18.296;2023-09-19T08:56:26;14.93;;;5.57;;
51810;SDS011;52468;40.116;18.296;2023-09-19T08:59:00;17.27;;;5.57;;
51810;SDS011;52468;40.116;18.296;2023-09-19T09:01:31;16.20;;;5.63;;
51810;SDS011;52468;40.116;18.296;2023-09-19T09:04:00;21.77;;;5.97;;
51810;SDS011;52468;40.116;18.296;2023-09-19T09:06:29;16.92;;;6.55;;
51810;SDS011;52468;40.116;18.296;2023-09-19T09:09:01;24.60;;;5.20;;
51810;SDS011;52468;40.116;18.296;2023-09-19T09:11:33;16.70;;;5.57;;
51810;SDS011;52468;40.116;18.296;2023-09-19T09:14:01;15.80;;;4.53;;
51810;SDS011;52468;40.116;18.296;2023-09-19T09:16:29;23.50;;;5.90;;
51810;SDS011;52468;40.116;18.296;2023-09-19T09:18:58;11.88;;;5.07;;
51810;SDS011;52468;40.116;18.296;2023-09-19T09:21:26;21.92;;;6.40;;
51810;SDS011;52468;40.116;18.296;2023-09-19T09:23:54;19.52;;;6.25;;
51810;SDS011;52468;40.116;18.296;2023-09-19T09:26:43;16.70;;;5.80;;
51810;SDS011;52468;40.116;18.296;2023-09-19T09:29:10;17.80;;;6.07;;
51810;SDS011;52468;40.116;18.296;2023-09-19T09:31:38;19.67;;;6.45;;
51810;SDS011;52468;40.116;18.296;2023-09-19T09:34:10;20.65;;;7.47;;
51810;SDS011;52468;40.116;18.296;2023-09-19T09:36:41;15.95;;;5.93;;
51810;SDS011;52468;40.116;18.296;2023-09-19T09:39:09;19.73;;;6.47;;
51810;SDS011;52468;40.116;18.296;2023-09-19T09:41:43;21.55;;;8.05;;
51810;SDS011;52468;40.116;18.296;2023-09-19T09:44:16;14.48;;;4.82;;
51810;SDS011;52468;40.116;18.296;2023-09-19T09:46:46;12.32;;;4.82;;
51810;SDS011;52468;40.116;18.296;2023-09-19T09:49:25;14.90;;;6.80;;
51810;SDS011;52468;40.116;18.296;2023-09-19T09:52:02;12.43;;;4.93;;
51810;SDS011;52468;40.116;18.296;2023-09-19T09:54:37;20.17;;;5.82;;
51810;SDS011;52468;40.116;18.296;2023-09-19T09:57:06;12.13;;;5.38;;
51810;SDS011;52468;40.116;18.296;2023-09-19T09:59:50;18.88;;;7.43;;
51810;SDS011;52468;40.116;18.296;2023-09-19T10:02:46;13.65;;;5.55;;
51810;SDS011;52468;40.116;18.296;2023-09-19T10:05:18;23.52;;;6.05;;
51810;SDS011;52468;40.116;18.296;2023-09-19T10:07:50;18.67;;;4.72;;
51810;SDS011;52468;40.116;18.296;2023-09-19T10:10:33;21.33;;;5.70;;
51810;SDS011;52468;40.116;18.296;2023-09-19T10:13:13;9.98;;;4.65;;
51810;SDS011;52468;40.116;18.296;2023-09-19T10:15:49;18.33;;;5.35;;
51810;SDS011;52468;40.116;18.296;2023-09-19T10:18:25;14.88;;;5.47;;
51810;SDS011;52468;40.116;18.296;2023-09-19T10:20:55;17.08;;;4.38;;
51810;SDS011;52468;40.116;18.296;2023-09-19T10:23:25;12.68;;;4.40;;
51810;SDS011;52468;40.116;18.296;2023-09-19T10:25:57;15.13;;;5.47;;
51810;SDS011;52468;40.116;18.296;2023-09-19T10:28:26;8.57;;;4.38;;
51810;SDS011;52468;40.116;18.296;2023-09-19T10:30:56;11.98;;;4.68;;
51810;SDS011;52468;40.116;18.296;2023-09-19T10:33:25;12.45;;;5.07;;
51810;SDS011;52468;40.116;18.296;2023-09-19T10:35:53;13.93;;;5.30;;
51810;SDS011;52468;40.116;18.296;2023-09-19T10:38:24;15.65;;;5.57;;
51810;SDS011;52468;40.116;18.296;2023-09-19T10:40:54;15.93;;;4.85;;
51810;SDS011;52468;40.116;18.296;2023-09-19T10:43:29;10.38;;;4.78;;
51810;SDS011;52468;40.116;18.296;2023-09-19T10:46:03;11.23;;;4.30;;
51810;SDS011;52468;40.116;18.296;2023-09-19T10:48:34;17.10;;;5.95;;
51810;SDS011;52468;40.116;18.296;2023-09-19T10:53:41;18.25;;;5.88;;
51810;SDS011;52468;40.116;18.296;2023-09-19T10:56:18;13.23;;;5.15;;
51810;SDS011;52468;40.116;18.296;2023-09-19T10:58:50;15.43;;;5.78;;
51810;SDS011;52468;40.116;18.296;2023-09-19T11:01:18;18.90;;;4.43;;
51810;SDS011;52468;40.116;18.296;2023-09-19T11:03:47;20.38;;;5.88;;
51810;SDS011;52468;40.116;18.296;2023-09-19T11:06:17;16.48;;;5.45;;
51810;SDS011;52468;40.116;18.296;2023-09-19T11:30:37;17.00;;;4.93;;
51810;SDS011;52468;40.116;18.296;2023-09-19T11:33:27;14.40;;;6.18;;
51810;SDS011;52468;40.116;18.296;2023-09-19T11:36:17;11.98;;;4.78;;
51810;SDS011;52468;40.116;18.296;2023-09-19T11:46:28;13.75;;;4.25;;
51810;SDS011;52468;40.116;18.296;2023-09-19T11:49:19;15.13;;;4.70;;
51810;SDS011;52468;40.116;18.296;2023-09-19T11:51:57;12.07;;;4.75;;
51810;SDS011;52468;40.116;18.296;2023-09-19T11:54:32;12.43;;;4.65;;
51810;SDS011;52468;40.116;18.296;2023-09-19T11:57:00;10.50;;;4.57;;
51810;SDS011;52468;40.116;18.296;2023-09-19T11:59:29;11.52;;;4.07;;
51810;SDS011;52468;40.116;18.296;2023-09-19T12:01:59;16.40;;;5.63;;
51810;SDS011;52468;40.116;18.296;2023-09-19T12:04:37;17.48;;;4.80;;
51810;SDS011;52468;40.116;18.296;2023-09-19T12:07:11;14.73;;;5.53;;
51810;SDS011;52468;40.116;18.296;2023-09-19T12:09:46;15.38;;;5.35;;
51810;SDS011;52468;40.116;18.296;2023-09-19T12:14:50;20.33;;;4.95;;
51810;SDS011;52468;40.116;18.296;2023-09-19T12:17:18;15.13;;;4.57;;
51810;SDS011;52468;40.116;18.296;2023-09-19T12:19:50;18.20;;;4.35;;
51810;SDS011;52468;40.116;18.296;2023-09-19T12:22:19;9.25;;;4.60;;
51810;SDS011;52468;40.116;18.296;2023-09-19T12:24:52;11.00;;;4.78;;
51810;SDS011;52468;40.116;18.296;2023-09-19T12:27:21;12.55;;;4.00;;
51810;SDS011;52468;40.116;18.296;2023-09-19T12:29:49;9.68;;;3.70;;
51810;SDS011;52468;40.116;18.296;2023-09-19T12:32:34;14.60;;;3.78;;
51810;SDS011;52468;40.116;18.296;2023-09-19T12:35:03;11.93;;;4.17;;
51810;SDS011;52468;40.116;18.296;2023-09-19T12:37:42;7.63;;;3.92;;
51810;SDS011;52468;40.116;18.296;2023-09-19T12:40:15;10.55;;;3.80;;
51810;SDS011;52468;40.116;18.296;2023-09-19T12:42:49;15.52;;;5.03;;
51810;SDS011;52468;40.116;18.296;2023-09-19T12:45:17;19.10;;;5.15;;
51810;SDS011;52468;40.116;18.296;2023-09-19T12:51:03;8.57;;;3.88;;
51810;SDS011;52468;40.116;18.296;2023-09-19T12:53:36;12.73;;;4.60;;
51810;SDS011;52468;40.116;18.296;2023-09-19T12:56:11;14.02;;;4.35;;
51810;SDS011;52468;40.116;18.296;2023-09-19T12:58:55;10.77;;;4.20;;
51810;SDS011;52468;40.116;18.296;2023-09-19T13:01:26;13.15;;;4.40;;
51810;SDS011;52468;40.116;18.296;2023-09-19T13:04:10;12.85;;;4.07;;
51810;SDS011;52468;40.116;18.296;2023-09-19T13:06:53;12.70;;;4.15;;
51810;SDS011;52468;40.116;18.296;2023-09-19T13:09:22;12.50;;;4.22;;
51810;SDS011;52468;40.116;18.296;2023-09-19T13:12:01;10.02;;;4.65;;
51810;SDS011;52468;40.116;18.296;2023-09-19T13:14:30;8.07;;;4.00;;
51810;SDS011;52468;40.116;18.296;2023-09-19T13:17:12;8.23;;;5.25;;
51810;SDS011;52468;40.116;18.296;2023-09-19T13:19:47;14.23;;;4.90;;
51810;SDS011;52468;40.116;18.296;2023-09-19T13:22:36;10.35;;;3.83;;
51810;SDS011;52468;40.116;18.296;2023-09-19T13:25:21;15.15;;;4.25;;
51810;SDS011;52468;40.116;18.296;2023-09-19T13:27:50;13.68;;;4.30;;
51810;SDS011;52468;40.116;18.296;2023-09-19T13:30:22;11.98;;;4.57;;
51810;SDS011;52468;40.116;18.296;2023-09-19T13:32:52;17.03;;;4.80;;
51810;SDS011;52468;40.116;18.296;2023-09-19T13:35:33;13.15;;;5.47;;
51810;SDS011;52468;40.116;18.296;2023-09-19T13:38:00;14.65;;;4.65;;
51810;SDS011;52468;40.116;18.296;2023-09-19T13:40:28;11.10;;;4.38;;
51810;SDS011;52468;40.116;18.296;2023-09-19T13:42:58;19.48;;;5.05;;
51810;SDS011;52468;40.116;18.296;2023-09-19T13:45:26;17.48;;;4.20;;
51810;SDS011;52468;40.116;18.296;2023-09-19T13:47:57;12.97;;;4.20;;
51810;SDS011;52468;40.116;18.296;2023-09-19T13:50:28;16.15;;;5.15;;
51810;SDS011;52468;40.116;18.296;2023-09-19T13:52:56;13.98;;;6.05;;
51810;SDS011;52468;40.116;18.296;2023-09-19T13:55:24;17.85;;;5.55;;
51810;SDS011;52468;40.116;18.296;2023-09-19T13:57:52;12.45;;;4.82;;
51810;SDS011;52468;40.116;18.296;2023-09-19T14:00:22;10.45;;;4.10;;
51810;SDS011;52468;40.116;18.296;2023-09-19T14:02:50;13.70;;;6.43;;
51810;SDS011;52468;40.116;18.296;2023-09-19T14:05:19;14.75;;;4.63;;
51810;SDS011;52468;40.116;18.296;2023-09-19T14:07:48;17.48;;;4.78;;
51810;SDS011;52468;40.116;18.296;2023-09-19T14:10:16;15.38;;;4.45;;
51810;SDS011;52468;40.116;18.296;2023-09-19T14:12:44;12.60;;;5.28;;
51810;SDS011;52468;40.116;18.296;2023-09-19T14:15:12;14.93;;;5.20;;
51810;SDS011;52468;40.116;18.296;2023-09-19T14:17:41;10.20;;;4.25;;
51810;SDS011;52468;40.116;18.296;2023-09-19T14:20:14;16.52;;;4.30;;
51810;SDS011;52468;40.116;18.296;2023-09-19T14:22:42;14.35;;;5.18;;
51810;SDS011;52468;40.116;18.296;2023-09-19T14:25:10;10.35;;;3.40;;
51810;SDS011;52468;40.116;18.296;2023-09-19T14:27:38;15.15;;;4.70;;
51810;SDS011;52468;40.116;18.296;2023-09-19T14:30:06;12.23;;;5.38;;
51810;SDS011;52468;40.116;18.296;2023-09-19T14:32:34;14.45;;;4.22;;
51810;SDS011;52468;40.116;18.296;2023-09-19T14:35:03;13.60;;;5.70;;
51810;SDS011;52468;40.116;18.296;2023-09-19T14:37:31;9.52;;;4.93;;
51810;SDS011;52468;40.116;18.296;2023-09-19T14:39:59;11.40;;;5.45;;
51810;SDS011;52468;40.116;18.296;2023-09-19T14:42:27;14.32;;;5.32;;
51810;SDS011;52468;40.116;18.296;2023-09-19T14:44:55;13.90;;;5.55;;
51810;SDS011;52468;40.116;18.296;2023-09-19T14:47:23;16.08;;;5.47;;
51810;SDS011;52468;40.116;18.296;2023-09-19T14:49:51;20.30;;;5.30;;
51810;SDS011;52468;40.116;18.296;2023-09-19T14:52:19;10.60;;;5.35;;
51810;SDS011;52468;40.116;18.296;2023-09-19T14:54:46;11.57;;;5.97;;
51810;SDS011;52468;40.116;18.296;2023-09-19T14:57:14;12.90;;;6.55;;
51810;SDS011;52468;40.116;18.296;2023-09-19T14:59:42;19.10;;;6.35;;
51810;SDS011;52468;40.116;18.296;2023-09-19T15:02:10;18.42;;;6.82;;
51810;SDS011;52468;40.116;18.296;2023-09-19T15:04:38;14.57;;;5.00;;
51810;SDS011;52468;40.116;18.296;2023-09-19T15:07:08;10.88;;;5.57;;
51810;SDS011;52468;40.116;18.296;2023-09-19T15:09:36;12.27;;;5.15;;
51810;SDS011;52468;40.116;18.296;2023-09-19T15:12:05;15.13;;;5.50;;
51810;SDS011;52468;40.116;18.296;2023-09-19T15:14:33;18.42;;;6.70;;
51810;SDS011;52468;40.116;18.296;2023-09-19T15:17:00;13.75;;;5.95;;
51810;SDS011;52468;40.116;18.296;2023-09-19T15:19:31;8.85;;;4.53;;
51810;SDS011;52468;40.116;18.296;2023-09-19T15:21:59;11.50;;;4.78;;
51810;SDS011;52468;40.116;18.296;2023-09-19T15:24:28;9.00;;;4.43;;
51810;SDS011;52468;40.116;18.296;2023-09-19T15:26:56;15.32;;;4.68;;
51810;SDS011;52468;40.116;18.296;2023-09-19T15:29:24;14.65;;;5.57;;
51810;SDS011;52468;40.116;18.296;2023-09-19T15:31:53;13.05;;;4.60;;
51810;SDS011;52468;40.116;18.296;2023-09-19T15:34:24;18.08;;;4.50;;
51810;SDS011;52468;40.116;18.296;2023-09-19T15:36:52;12.05;;;4.80;;
51810;SDS011;52468;40.116;18.296;2023-09-19T15:39:20;14.55;;;5.82;;